createdAt,value
2022-11-02T00:00:41.498Z,1.33
2022-11-02T00:03:08.917Z,1.30
2022-11-02T00:05:36.541Z,1.50
2022-11-02T00:08:04.301Z,1.77
2022-11-02T00:10:31.564Z,1.73
2022-11-02T00:13:01.514Z,1.13
2022-11-02T00:15:31.604Z,1.50
2022-11-02T00:18:09.819Z,1.15
2022-11-02T00:20:39.175Z,1.40
2022-11-02T00:23:10.900Z,1.30
2022-11-02T00:26:00.685Z,1.33
2022-11-02T00:28:30.233Z,1.20
2022-11-02T00:30:59.878Z,0.97
2022-11-02T00:33:29.551Z,1.23
2022-11-02T00:35:59.214Z,1.30
2022-11-02T00:38:26.359Z,1.23
2022-11-02T00:40:53.459Z,1.57
2022-11-02T00:43:23.075Z,1.20
2022-11-02T00:45:50.226Z,1.50
2022-11-02T00:48:17.338Z,1.10
2022-11-02T00:50:47.011Z,1.50
2022-11-02T00:53:14.104Z,1.50
2022-11-02T00:55:41.153Z,1.47
2022-11-02T00:58:08.441Z,1.43
2022-11-02T01:00:35.663Z,1.70
2022-11-02T01:03:05.139Z,1.20
2022-11-02T01:05:32.273Z,1.60
2022-11-02T01:07:59.421Z,1.50
2022-11-02T01:10:26.546Z,1.23
2022-11-02T01:12:53.654Z,1.47
2022-11-02T01:15:20.803Z,1.00
2022-11-02T01:17:50.113Z,1.33
2022-11-02T01:20:17.265Z,1.40
2022-11-02T01:22:44.453Z,1.50
2022-11-02T01:25:11.575Z,1.13
2022-11-02T01:27:40.975Z,1.47
2022-11-02T01:30:08.498Z,1.13
2022-11-02T01:32:35.625Z,1.50
2022-11-02T01:35:03.055Z,1.40
2022-11-02T01:37:30.130Z,1.70
2022-11-02T01:39:57.221Z,1.30
2022-11-02T01:42:27.959Z,1.10
2022-11-02T01:44:55.116Z,1.20
2022-11-02T01:47:27.673Z,1.30
2022-11-02T01:50:06.823Z,1.50
2022-11-02T01:52:37.989Z,1.20
2022-11-02T01:55:25.140Z,1.90
2022-11-02T01:58:03.042Z,1.30
2022-11-02T02:00:33.395Z,1.67
2022-11-02T02:03:12.586Z,1.03
2022-11-02T02:05:43.625Z,1.60
2022-11-02T02:08:14.445Z,1.43
2022-11-02T02:10:41.558Z,1.87
2022-11-02T02:13:08.728Z,1.10
2022-11-02T02:16:05.496Z,1.70
2022-11-02T02:18:51.450Z,1.43
2022-11-02T02:21:58.525Z,1.23
2022-11-02T02:24:44.241Z,1.37
2022-11-02T02:27:24.293Z,1.43
2022-11-02T02:30:09.776Z,1.73
2022-11-02T02:33:02.732Z,2.07
2022-11-02T02:35:41.261Z,1.37
2022-11-02T02:38:15.251Z,1.77
2022-11-02T02:41:10.344Z,1.30
2022-11-02T02:43:46.199Z,1.47
2022-11-02T02:46:21.826Z,1.63
2022-11-02T02:48:51.794Z,1.90
2022-11-02T02:51:27.836Z,1.57
2022-11-02T02:54:12.193Z,1.50
2022-11-02T02:56:50.417Z,1.73
2022-11-02T02:59:29.327Z,1.83
2022-11-02T03:01:58.523Z,1.90
2022-11-02T03:04:26.126Z,1.50
2022-11-02T03:06:57.979Z,1.70
2022-11-02T03:09:43.999Z,1.83
2022-11-02T03:12:28.863Z,2.03
2022-11-02T03:15:25.031Z,1.53
2022-11-02T03:18:14.639Z,1.70
2022-11-02T03:20:59.040Z,2.00
2022-11-02T03:23:34.684Z,1.77
2022-11-02T03:26:05.227Z,1.60
2022-11-02T03:28:50.480Z,1.93
2022-11-02T03:31:22.454Z,1.50
2022-11-02T03:34:00.384Z,2.57
2022-11-02T03:36:39.391Z,2.00
2022-11-02T03:39:14.372Z,1.33
2022-11-02T03:41:44.836Z,1.93
2022-11-02T03:44:16.402Z,1.90
2022-11-02T03:46:44.751Z,1.40
2022-11-02T03:49:16.572Z,1.63
2022-11-02T03:51:48.437Z,2.23
2022-11-02T03:54:48.956Z,1.90
2022-11-02T03:57:22.378Z,1.67
2022-11-02T03:59:49.845Z,1.70
2022-11-02T04:02:18.721Z,1.80
2022-11-02T04:04:53.687Z,1.40
2022-11-02T04:07:25.888Z,2.00
2022-11-02T04:09:53.077Z,1.80
2022-11-02T04:12:38.615Z,1.53
2022-11-02T04:15:08.854Z,1.50
2022-11-02T04:17:54.642Z,1.73
2022-11-02T04:20:21.725Z,2.03
2022-11-02T04:23:07.682Z,1.97
2022-11-02T04:25:34.775Z,1.77
2022-11-02T04:28:08.897Z,2.03
2022-11-02T04:30:36.024Z,2.03
2022-11-02T04:33:24.191Z,1.50
2022-11-02T04:35:51.455Z,1.87
2022-11-02T04:38:37.222Z,1.73
2022-11-02T04:41:26.363Z,2.27
2022-11-02T04:43:53.937Z,2.17
2022-11-02T04:46:22.560Z,1.60
2022-11-02T04:48:50.302Z,1.77
2022-11-02T04:51:17.779Z,1.77
2022-11-02T04:53:44.889Z,1.77
2022-11-02T04:56:14.465Z,1.70
2022-11-02T04:58:41.711Z,1.50
2022-11-02T05:01:13.884Z,1.63
2022-11-02T05:03:43.730Z,1.40
2022-11-02T05:06:11.482Z,1.33
2022-11-02T05:08:43.233Z,1.47
2022-11-02T05:11:13.385Z,1.83
2022-11-02T05:13:41.856Z,1.87
2022-11-02T05:16:14.507Z,1.70
2022-11-02T05:18:41.742Z,1.80
2022-11-02T05:21:12.324Z,1.33
2022-11-02T05:23:39.754Z,1.60
2022-11-02T05:26:12.157Z,1.90
2022-11-02T05:28:45.038Z,1.50
2022-11-02T05:31:12.105Z,2.17
2022-11-02T05:33:39.193Z,1.73
2022-11-02T05:36:06.755Z,1.80
2022-11-02T05:38:33.927Z,1.40
2022-11-02T05:41:02.559Z,1.83
2022-11-02T05:43:30.362Z,2.20
2022-11-02T05:46:01.742Z,2.30
2022-11-02T05:48:31.847Z,1.70
2022-11-02T05:51:03.067Z,1.73
2022-11-02T05:53:34.237Z,1.97
2022-11-02T05:56:03.463Z,1.83
2022-11-02T05:58:30.783Z,1.90
2022-11-02T06:01:02.662Z,1.83
2022-11-02T06:03:30.715Z,2.40
2022-11-02T06:06:06.335Z,2.00
2022-11-02T06:08:34.921Z,2.00
2022-11-02T06:11:13.285Z,2.27
2022-11-02T06:13:41.443Z,1.97
2022-11-02T06:16:11.248Z,2.30
2022-11-02T06:18:38.945Z,1.70
2022-11-02T06:21:06.643Z,1.97
2022-11-02T06:23:34.576Z,2.77
2022-11-02T06:26:04.378Z,3.90
2022-11-02T06:28:34.145Z,3.07
2022-11-02T06:31:03.759Z,2.60
2022-11-02T06:33:30.863Z,3.70
2022-11-02T06:36:00.625Z,2.77
2022-11-02T06:38:27.732Z,2.60
2022-11-02T06:40:59.797Z,2.67
2022-11-02T06:43:29.352Z,2.63
2022-11-02T06:45:59.901Z,2.20
2022-11-02T06:48:33.324Z,2.30
2022-11-02T06:51:03.017Z,1.80
2022-11-02T06:53:30.220Z,2.10
2022-11-02T06:55:59.264Z,2.13
2022-11-02T06:58:26.968Z,2.00
2022-11-02T07:01:07.174Z,2.00
2022-11-02T07:03:34.898Z,2.47
2022-11-02T07:06:02.167Z,1.83
2022-11-02T07:08:29.650Z,2.03
2022-11-02T07:10:59.477Z,2.30
2022-11-02T07:13:26.682Z,2.37
2022-11-02T07:15:55.209Z,2.37
2022-11-02T07:18:24.528Z,2.20
2022-11-02T07:20:53.899Z,3.00
2022-11-02T07:23:24.141Z,2.47
2022-11-02T07:25:52.153Z,2.20
2022-11-02T07:28:21.922Z,2.40
2022-11-02T07:30:49.054Z,2.43
2022-11-02T07:33:16.408Z,2.47
2022-11-02T07:35:43.814Z,2.53
2022-11-02T07:38:11.494Z,2.03
2022-11-02T07:40:39.238Z,2.60
2022-11-02T07:43:09.072Z,2.30
2022-11-02T07:45:36.495Z,2.10
2022-11-02T07:48:03.709Z,2.17
2022-11-02T07:50:30.917Z,2.93
2022-11-02T07:53:01.726Z,2.90
2022-11-02T07:55:30.900Z,2.47
2022-11-02T07:58:08.091Z,2.40
2022-11-02T08:00:39.390Z,2.53
2022-11-02T08:03:08.297Z,2.10
2022-11-02T08:05:37.991Z,2.20
2022-11-02T08:08:14.603Z,1.93
2022-11-02T08:10:42.777Z,1.97
2022-11-02T08:13:11.371Z,2.73
2022-11-02T08:15:38.807Z,3.33
2022-11-02T08:18:06.362Z,2.73
2022-11-02T08:20:36.000Z,2.87
2022-11-02T08:23:04.230Z,2.37
2022-11-02T08:25:32.154Z,2.50
2022-11-02T08:28:01.072Z,2.70
2022-11-02T08:30:29.916Z,2.80
2022-11-02T08:33:06.487Z,2.57
2022-11-02T08:35:34.824Z,2.73
2022-11-02T08:38:03.334Z,2.60
2022-11-02T08:40:30.829Z,2.43
2022-11-02T08:43:02.263Z,2.53
2022-11-02T08:46:08.498Z,2.67
2022-11-02T08:48:19.637Z,2.40
2022-11-02T08:50:48.690Z,3.13
2022-11-02T08:53:18.262Z,2.73
2022-11-02T08:55:45.407Z,2.90
2022-11-02T08:58:12.633Z,2.30
2022-11-02T09:00:39.867Z,2.43
2022-11-02T09:03:14.410Z,2.67
2022-11-02T09:05:46.587Z,2.43
2022-11-02T09:08:20.665Z,2.27
2022-11-02T09:10:51.524Z,2.17
2022-11-02T09:13:25.441Z,2.60
2022-11-02T09:15:55.597Z,2.47
2022-11-02T09:18:23.694Z,2.43
2022-11-02T09:20:51.590Z,2.43
2022-11-02T09:23:20.575Z,2.60
2022-11-02T09:25:48.365Z,2.30
2022-11-02T09:28:15.876Z,2.40
2022-11-02T09:30:43.408Z,2.30
2022-11-02T09:33:11.743Z,3.00
2022-11-02T09:35:44.428Z,2.37
2022-11-02T09:38:11.747Z,2.43
2022-11-02T09:40:55.279Z,2.53
2022-11-02T09:43:40.038Z,2.40
2022-11-02T09:46:13.588Z,2.67
2022-11-02T09:48:48.315Z,2.17
2022-11-02T09:51:29.437Z,2.57
2022-11-02T09:54:29.920Z,2.17
2022-11-02T09:57:01.842Z,2.90
2022-11-02T09:59:31.482Z,2.40
2022-11-02T10:02:19.859Z,2.80
2022-11-02T10:05:08.284Z,2.90
2022-11-02T10:07:55.859Z,2.87
2022-11-02T10:10:50.081Z,2.77
2022-11-02T10:13:42.552Z,2.93
2022-11-02T10:16:20.988Z,2.53
2022-11-02T10:18:51.955Z,2.63
2022-11-02T10:21:33.397Z,3.30
2022-11-02T10:24:25.768Z,2.10
2022-11-02T10:26:58.704Z,2.57
2022-11-02T10:29:56.694Z,3.13
2022-11-02T10:32:26.400Z,2.80
2022-11-02T10:34:59.217Z,2.40
2022-11-02T10:37:58.906Z,2.70
2022-11-02T10:40:47.783Z,2.20
2022-11-02T10:43:53.080Z,2.17
2022-11-02T10:46:48.051Z,2.50
2022-11-02T10:49:30.248Z,2.10
2022-11-02T10:51:57.486Z,2.40
2022-11-02T10:54:33.179Z,2.30
2022-11-02T10:57:13.914Z,2.30
2022-11-02T10:59:41.181Z,2.72
2022-11-02T11:02:14.057Z,3.07
2022-11-02T11:04:44.798Z,2.73
2022-11-02T11:07:27.751Z,2.80
2022-11-02T11:09:56.372Z,1.93
2022-11-02T11:12:34.042Z,2.17
2022-11-02T11:20:39.863Z,2.40
2022-11-02T11:23:25.974Z,2.90
2022-11-02T11:26:06.473Z,2.57
2022-11-02T11:28:52.085Z,2.43
2022-11-02T11:31:22.595Z,2.00
2022-11-02T11:33:54.646Z,2.23
2022-11-02T11:36:34.161Z,2.40
2022-11-02T11:39:04.771Z,2.27
2022-11-02T11:41:34.412Z,2.87
2022-11-02T11:44:02.921Z,2.53
2022-11-02T11:46:41.134Z,1.90
2022-11-02T11:49:20.257Z,2.63
2022-11-02T11:51:53.431Z,2.40
2022-11-02T11:54:30.220Z,2.33
2022-11-02T11:57:18.481Z,1.90
2022-11-02T11:59:47.777Z,2.20
2022-11-02T12:02:30.953Z,1.77
2022-11-02T12:05:13.266Z,2.97
2022-11-02T12:07:43.152Z,2.70
2022-11-02T12:10:31.714Z,2.23
2022-11-02T12:13:13.962Z,2.03
2022-11-02T12:15:52.293Z,2.33
2022-11-02T12:18:42.610Z,2.13
2022-11-02T12:21:20.818Z,2.53
2022-11-02T12:24:33.137Z,2.37
2022-11-02T12:27:19.260Z,2.17
2022-11-02T12:30:09.782Z,1.80
2022-11-02T12:32:58.692Z,2.33
2022-11-02T12:35:43.199Z,2.40
2022-11-02T12:38:48.136Z,2.10
2022-11-02T12:41:45.764Z,2.20
2022-11-02T12:44:38.816Z,2.60
2022-11-02T12:47:36.501Z,1.70
2022-11-02T12:50:36.084Z,2.20
2022-11-02T12:53:30.061Z,1.90
2022-11-02T12:56:02.361Z,2.03
2022-11-02T12:58:32.972Z,2.57
2022-11-02T13:01:27.406Z,1.70
2022-11-02T13:04:17.435Z,1.97
2022-11-02T13:06:49.055Z,1.80
2022-11-02T13:09:16.201Z,1.70
2022-11-02T13:11:51.516Z,1.60
2022-11-02T13:14:21.728Z,1.60
2022-11-02T13:17:01.534Z,1.93
2022-11-02T13:19:48.940Z,2.00
2022-11-02T13:22:18.303Z,1.90
2022-11-02T13:24:55.023Z,2.27
2022-11-02T13:27:48.371Z,2.03
2022-11-02T13:30:18.056Z,1.70
2022-11-02T13:33:01.659Z,1.37
2022-11-02T13:35:37.921Z,1.60
2022-11-02T13:38:31.817Z,1.80
2022-11-02T13:41:24.929Z,2.00
2022-11-02T13:43:57.100Z,1.60
2022-11-02T13:47:07.271Z,2.15
2022-11-02T13:49:52.730Z,1.80
2022-11-02T13:52:42.530Z,1.60
2022-11-02T13:55:28.436Z,1.63
2022-11-02T13:57:58.982Z,2.07
2022-11-02T14:00:31.343Z,1.63
2022-11-02T14:03:03.719Z,1.33
2022-11-02T14:05:40.660Z,1.60
2022-11-02T14:08:11.528Z,1.53
2022-11-02T14:10:40.976Z,1.40
2022-11-02T14:13:14.063Z,1.73
2022-11-02T14:15:42.960Z,1.77
2022-11-02T14:18:10.006Z,1.30
2022-11-02T14:20:46.866Z,1.33
2022-11-02T14:23:14.429Z,1.67
2022-11-02T14:25:51.482Z,1.40
2022-11-02T14:28:49.412Z,1.60
2022-11-02T14:31:16.524Z,1.60
2022-11-02T14:33:56.946Z,1.80
2022-11-02T14:36:58.507Z,1.10
2022-11-02T14:39:56.857Z,1.43
2022-11-02T14:42:57.393Z,1.77
2022-11-02T14:45:35.980Z,1.63
2022-11-02T14:48:05.208Z,1.77
2022-11-02T14:50:35.000Z,1.37
2022-11-02T14:53:09.198Z,1.70
2022-11-02T14:55:38.885Z,1.70
2022-11-02T14:58:14.406Z,1.50
2022-11-02T15:00:47.630Z,1.83
2022-11-02T15:03:31.609Z,1.80
2022-11-02T15:06:03.858Z,1.50
2022-11-02T15:08:35.795Z,1.30
2022-11-02T15:11:40.315Z,1.10
2022-11-02T15:14:33.016Z,1.20
2022-11-02T15:17:00.271Z,1.33
2022-11-02T15:19:46.553Z,1.33
2022-11-02T15:22:35.150Z,1.30
2022-11-02T15:25:13.982Z,1.67
2022-11-02T15:27:43.873Z,2.10
2022-11-02T15:30:16.557Z,1.98
2022-11-02T15:32:58.909Z,1.47
2022-11-02T15:35:35.728Z,1.53
2022-11-02T15:38:27.943Z,1.87
2022-11-02T15:41:28.439Z,1.23
2022-11-02T15:44:18.780Z,1.57
2022-11-02T15:47:12.659Z,1.80
2022-11-02T15:50:05.609Z,1.60
2022-11-02T15:53:16.517Z,1.90
2022-11-02T15:55:42.861Z,1.67
2022-11-02T15:58:28.657Z,1.93
2022-11-02T16:01:28.298Z,1.67
2022-11-02T16:04:00.592Z,1.70
2022-11-02T16:06:39.498Z,1.50
2022-11-02T16:09:28.525Z,1.70
2022-11-02T16:12:24.996Z,1.20
2022-11-02T16:15:12.340Z,1.90
2022-11-02T16:17:40.115Z,1.90
2022-11-02T16:20:28.271Z,1.37
2022-11-02T16:23:04.229Z,1.80
2022-11-02T16:25:35.278Z,1.70
2022-11-02T16:28:25.580Z,1.60
2022-11-02T16:31:18.070Z,1.80
2022-11-02T16:34:01.125Z,1.67
2022-11-02T16:36:46.802Z,1.60
2022-11-02T16:39:16.624Z,1.53
2022-11-02T16:41:50.709Z,1.83
2022-11-02T16:44:27.244Z,1.57
2022-11-02T16:47:12.123Z,1.60
2022-11-02T16:49:51.149Z,1.47
2022-11-02T16:52:37.871Z,1.70
2022-11-02T16:55:47.384Z,1.77
2022-11-02T16:58:26.446Z,1.63
2022-11-02T17:00:58.186Z,2.17
2022-11-02T17:03:30.636Z,1.50
2022-11-02T17:06:00.301Z,2.03
2022-11-02T17:08:38.378Z,2.03
2022-11-02T17:11:11.708Z,1.73
2022-11-02T17:13:48.089Z,2.03
2022-11-02T17:16:15.267Z,1.80
2022-11-02T17:18:42.558Z,1.97
2022-11-02T17:21:12.812Z,1.57
2022-11-02T17:23:47.730Z,2.50
2022-11-02T17:26:24.816Z,2.03
2022-11-02T17:28:59.488Z,2.00
2022-11-02T17:31:33.788Z,2.20
2022-11-02T17:34:09.034Z,2.40
2022-11-02T17:36:43.025Z,1.63
2022-11-02T17:39:17.616Z,2.27
2022-11-02T17:42:05.828Z,2.47
2022-11-02T17:44:33.544Z,2.10
2022-11-02T17:47:01.050Z,2.23
2022-11-02T17:49:28.144Z,1.80
2022-11-02T17:51:57.767Z,2.43
2022-11-02T17:54:25.079Z,2.40
2022-11-02T17:56:52.171Z,2.10
2022-11-02T17:59:19.274Z,2.33
2022-11-02T18:01:46.585Z,2.17
2022-11-02T18:04:16.180Z,2.50
2022-11-02T18:06:43.286Z,2.50
2022-11-02T18:09:19.619Z,2.23
2022-11-02T18:11:47.279Z,2.47
2022-11-02T18:14:16.792Z,2.00
2022-11-02T18:16:47.952Z,2.07
2022-11-02T18:19:16.792Z,1.87
2022-11-02T18:21:46.342Z,2.23
2022-11-02T18:24:13.479Z,2.53
2022-11-02T18:26:44.172Z,2.40
2022-11-02T18:29:14.200Z,1.87
2022-11-02T18:31:41.292Z,2.80
2022-11-02T18:34:09.947Z,2.20
2022-11-02T18:36:41.035Z,2.23
2022-11-02T18:39:08.128Z,2.67
2022-11-02T18:41:37.068Z,2.60
2022-11-02T18:44:11.982Z,2.10
2022-11-02T18:46:42.447Z,2.70
2022-11-02T18:49:11.971Z,2.53
2022-11-02T18:51:47.747Z,2.53
2022-11-02T18:54:17.814Z,2.37
2022-11-02T18:56:45.448Z,2.33
2022-11-02T18:59:20.110Z,2.57
2022-11-02T19:01:47.328Z,2.50
2022-11-02T19:04:17.844Z,2.50
2022-11-02T19:07:04.258Z,2.57
2022-11-02T19:09:33.833Z,2.77
2022-11-02T19:12:03.470Z,2.60
2022-11-02T19:14:39.806Z,2.97
2022-11-02T19:17:10.705Z,2.80
2022-11-02T19:19:40.807Z,2.70
2022-11-02T19:22:07.976Z,3.43
2022-11-02T19:24:35.169Z,2.73
2022-11-02T19:27:02.242Z,2.43
2022-11-02T19:29:29.389Z,2.63
2022-11-02T19:31:56.437Z,2.80
2022-11-02T19:34:23.991Z,3.23
2022-11-02T19:36:53.809Z,2.43
2022-11-02T19:39:20.958Z,2.30
2022-11-02T19:41:51.950Z,3.03
2022-11-02T19:44:19.192Z,3.10
2022-11-02T19:46:48.648Z,2.80
2022-11-02T19:49:15.805Z,2.57
2022-11-02T19:51:45.446Z,1.97
2022-11-02T19:54:12.588Z,2.70
2022-11-02T19:56:39.831Z,2.87
2022-11-02T19:59:07.071Z,2.23
2022-11-02T20:01:39.016Z,2.47
2022-11-02T20:04:06.798Z,3.03
2022-11-02T20:06:39.603Z,2.63
2022-11-02T20:09:13.045Z,2.50
2022-11-02T20:11:45.510Z,2.50
2022-11-02T20:14:14.593Z,2.83
2022-11-02T20:16:41.878Z,2.37
2022-11-02T20:19:09.573Z,2.77
2022-11-02T20:21:42.669Z,2.60
2022-11-02T20:24:11.580Z,2.30
2022-11-02T20:26:42.448Z,2.20
2022-11-02T20:29:12.308Z,2.30
2022-11-02T20:31:44.218Z,2.60
2022-11-02T20:34:13.283Z,2.40
2022-11-02T20:36:42.837Z,2.83
2022-11-02T20:39:10.993Z,2.33
2022-11-02T20:41:38.157Z,3.20
2022-11-02T20:44:05.299Z,2.73
2022-11-02T20:46:41.836Z,2.60
2022-11-02T20:51:57.523Z,2.67
2022-11-02T20:54:25.155Z,2.50
2022-11-02T20:56:52.456Z,2.30
2022-11-02T20:59:19.586Z,2.20
2022-11-02T21:01:46.763Z,2.37
2022-11-02T21:04:19.897Z,3.10
2022-11-02T21:06:49.537Z,2.30
2022-11-02T21:09:17.736Z,2.23
2022-11-02T21:12:03.567Z,2.17
2022-11-02T21:14:30.686Z,2.60
2022-11-02T21:16:57.876Z,2.23
2022-11-02T21:19:25.044Z,2.10
2022-11-02T21:21:59.369Z,2.70
2022-11-02T21:24:27.780Z,2.23
2022-11-02T21:26:54.928Z,2.50
2022-11-02T21:29:22.653Z,2.60
2022-11-02T21:31:50.015Z,2.33
2022-11-02T21:34:21.723Z,2.33
2022-11-02T21:36:48.900Z,2.23
2022-11-02T21:39:18.194Z,2.67
2022-11-02T21:41:45.422Z,2.53
2022-11-02T21:44:12.568Z,2.80
2022-11-02T21:46:42.316Z,2.47
2022-11-02T21:49:09.596Z,2.50
2022-11-02T21:51:38.430Z,2.40
2022-11-02T21:54:05.712Z,2.43
2022-11-02T21:56:34.212Z,2.80
2022-11-02T21:59:06.058Z,2.67
2022-11-02T22:01:49.627Z,2.50
2022-11-02T22:04:28.270Z,2.70
2022-11-02T22:06:56.195Z,2.70
2022-11-02T22:09:23.652Z,2.17
2022-11-02T22:12:11.146Z,2.70
2022-11-02T22:14:56.798Z,2.53
2022-11-02T22:17:48.741Z,3.00
2022-11-02T22:20:17.134Z,2.83
2022-11-02T22:22:45.010Z,2.70
2022-11-02T22:25:12.154Z,2.60
2022-11-02T22:27:39.242Z,2.80
2022-11-02T22:30:09.215Z,2.57
2022-11-02T22:32:36.318Z,2.90
2022-11-02T22:35:03.527Z,2.57
2022-11-02T22:37:49.274Z,2.33
2022-11-02T22:40:16.620Z,2.10
2022-11-02T22:42:53.059Z,2.33
2022-11-02T22:45:39.885Z,2.87
2022-11-02T22:48:09.403Z,3.30
2022-11-02T22:50:44.110Z,2.90
2022-11-02T22:53:11.379Z,3.20
2022-11-02T22:55:40.499Z,2.87
2022-11-02T22:58:07.621Z,2.53
2022-11-02T23:00:34.721Z,2.13
2022-11-02T23:03:01.830Z,2.40
2022-11-02T23:05:33.250Z,2.30
2022-11-02T23:08:02.441Z,2.40
2022-11-02T23:10:53.468Z,2.63
2022-11-02T23:13:22.267Z,2.47
2022-11-02T23:15:49.589Z,2.07
2022-11-02T23:18:17.000Z,2.50
2022-11-02T23:20:55.906Z,2.40
2022-11-02T23:23:41.265Z,2.47
2022-11-02T23:26:08.355Z,2.60
2022-11-02T23:28:54.224Z,2.70
2022-11-02T23:31:39.612Z,2.03
2022-11-02T23:34:06.718Z,2.50
2022-11-02T23:36:33.792Z,2.47
2022-11-02T23:39:19.520Z,1.97
2022-11-02T23:41:46.631Z,2.77
2022-11-02T23:44:16.468Z,2.67
2022-11-02T23:46:51.090Z,2.10
2022-11-02T23:49:20.311Z,2.60
2022-11-02T23:52:05.999Z,2.57
2022-11-02T23:54:51.630Z,2.23
2022-11-02T23:57:22.481Z,1.70
2022-11-02T23:59:50.191Z,2.50
